首页
METAR-TAF:

METAR-TAF

机场 :

弗洛里亚诺波利斯, 圣卡塔琳娜州, 巴西

纬度: 27-40S, 经度: 048-33W, 海拔: 5米

当前天气观测

该预报发布于9分钟前的11:00 UTC
风速10节,风向北转西北
温度 18°C
湿度 94%
气压 1008 hPa
能见度10公里或以上
1500米以下无云,无积雨云

METAR: SBFL 151100Z 33010KT CAVOK 18/17 Q1008

时间: 08:09 (11:09 UTC)

预报

该预报发布于8小时和9分钟前的03:00 UTC
预报有效从15日的 06点(UTC)到 16日的 06点(UTC)
风速10节,风向北转西北
能見度: 5000
多云层高于1200英尺
少量云层高于4000英尺, 塔状积云.
短暂存在
从 15日的 06点(UTC)到 15日的 09点(UTC)
能見度: 3000
多云层高于700英尺
少量云层高于4000英尺, 积雨云.
雷暴, 雨
成为
从 15日的 12点(UTC)到 15日的 14点(UTC)
风速8节,风向西转西北
能見度: 8000
多云层高于1500英尺
成为
从 15日的 20点(UTC)到 15日的 22点(UTC)
能见度10公里或以上
多云层高于3000英尺

TAF: SBFL 150300Z 1506/1606 34010KT 5000 RA BKN012 FEW040TCU TN16/1506Z TX24/1517Z TEMPO 1506/1509 3000 TSRA BKN007 FEW040CB BECMG 1512/1514 30008KT 8000 BKN015 BECMG 1520/1522 9999 NSW BKN030 RMK PEN

超过4000个机场的气象观测和天气预报(METAR&TAF报告)。

可查询的气象台以黄色和红色小点在地图上表示。

将鼠标移到小点上方,可查看气象台名称。

然后点击查看天气观测和预报。

如需切换地图:点击带黑十字的绿色按钮放大地图;点击带横线的绿色按钮缩小地图;或者点击绿色箭头查看邻近地区的地图。


METAR-TAF: